Time;durP1;ratioP1;P1;durP2;ratioP2;P2;SDS_P1;SDS_P2;PMS_P1;PMS_P2;Temp;Humidity;BMP_temperature;BMP_pressure;BME280_temperature;BME280_humidity;BME280_pressure;Samples;Min_cycle;Max_cycle;Signal;HPM_P1;HPM_P2
2022/05/03 00:00:56;;;;;;;18.60;12.80;;;12.60;99.90;;;;;;5030809;28;20473;-73
2022/05/03 00:03:25;;;;;;;16.23;13.23;;;12.60;99.90;;;;;;5042996;28;20448;-73
2022/05/03 00:06:01;;;;;;;17.70;12.60;;;12.60;99.90;;;;;;5050047;28;20923;-73
2022/05/03 00:08:38;;;;;;;22.17;13.10;;;12.60;99.90;;;;;;5033525;28;20448;-73
2022/05/03 00:11:10;;;;;;;16.03;13.17;;;12.60;99.90;;;;;;5030467;28;20551;-72
2022/05/03 00:13:54;;;;;;;16.70;12.50;;;12.50;99.90;;;;;;5017521;28;20536;-73
2022/05/03 00:16:22;;;;;;;14.23;12.60;;;12.50;99.90;;;;;;5030505;28;20488;-73
2022/05/03 00:18:49;;;;;;;18.83;13.47;;;12.50;99.90;;;;;;5038512;28;20510;-73
2022/05/03 00:21:15;;;;;;;25.93;13.17;;;12.50;99.90;;;;;;5049569;28;20472;-73
2022/05/03 00:23:44;;;;;;;19.83;12.30;;;12.50;99.90;;;;;;5031508;28;20848;-73
2022/05/03 00:26:12;;;;;;;22.97;12.67;;;12.40;99.90;;;;;;5020177;28;20449;-73
2022/05/03 00:28:39;;;;;;;15.93;12.80;;;12.40;99.90;;;;;;5030557;28;20499;-73
2022/05/03 00:31:08;;;;;;;16.13;13.17;;;12.40;99.90;;;;;;5048684;28;20472;-73
2022/05/03 00:33:34;;;;;;;19.13;13.10;;;12.30;99.90;;;;;;5031217;28;20512;-73
2022/05/03 00:36:01;;;;;;;18.33;13.30;;;12.30;99.90;;;;;;5044866;28;20536;-73
2022/05/03 00:38:34;;;;;;;16.93;12.70;;;12.30;99.90;;;;;;5030462;28;20453;-73
2022/05/03 00:41:05;;;;;;;17.30;13.10;;;12.30;99.90;;;;;;5038741;28;20475;-73
2022/05/03 00:43:40;;;;;;;18.80;13.63;;;12.20;99.90;;;;;;5049601;28;20514;-73
2022/05/03 00:46:11;;;;;;;16.80;12.53;;;12.20;99.90;;;;;;5050171;28;20509;-72
2022/05/03 00:49:16;;;;;;;23.57;13.13;;;12.20;99.90;;;;;;5047774;28;20457;-73
2022/05/03 00:51:49;;;;;;;17.00;12.67;;;12.20;99.90;;;;;;5048517;28;20899;-73
2022/05/03 00:54:26;;;;;;;21.20;12.93;;;12.20;99.90;;;;;;5049912;28;20870;-73
2022/05/03 00:57:09;;;;;;;20.93;13.73;;;12.20;99.90;;;;;;5053629;28;20452;-73
2022/05/03 01:00:01;;;;;;;20.37;13.17;;;12.20;99.90;;;;;;5053182;28;20510;-73
2022/05/03 01:02:32;;;;;;;17.80;12.90;;;12.10;99.90;;;;;;5053207;28;20506;-73
2022/05/03 01:05:09;;;;;;;14.80;11.77;;;12.10;99.90;;;;;;5052908;28;20612;-73
2022/05/03 01:07:37;;;;;;;16.93;11.83;;;12.10;99.90;;;;;;5039018;28;20467;-73
2022/05/03 01:10:06;;;;;;;14.07;12.37;;;12.10;99.90;;;;;;5047258;28;20472;-73
2022/05/03 01:12:57;;;;;;;18.70;14.57;;;12.10;99.90;;;;;;5033706;28;20539;-73
2022/05/03 01:15:27;;;;;;;16.90;13.30;;;12.10;99.90;;;;;;5033485;28;20540;-73
2022/05/03 01:18:07;;;;;;;18.40;14.10;;;12.10;99.90;;;;;;5042318;28;20487;-73
2022/05/03 01:20:42;;;;;;;19.80;13.97;;;12.10;99.90;;;;;;5053194;28;20463;-73
2022/05/03 01:23:38;;;;;;;21.80;13.20;;;12.10;99.90;;;;;;5047282;28;20511;-73
2022/05/03 01:26:25;;;;;;;17.10;12.60;;;12.10;99.90;;;;;;5048082;28;20523;-73
2022/05/03 01:28:59;;;;;;;19.57;13.00;;;12.00;99.90;;;;;;5033235;28;20480;-73
2022/05/03 01:31:29;;;;;;;21.93;12.90;;;12.00;99.90;;;;;;5033352;28;20989;-73
2022/05/03 01:34:01;;;;;;;21.50;14.30;;;12.00;99.90;;;;;;5041872;28;20463;-73
2022/05/03 01:36:40;;;;;;;21.37;12.70;;;12.00;99.90;;;;;;5053506;28;20494;-73
2022/05/03 01:39:15;;;;;;;18.10;12.83;;;12.00;99.90;;;;;;5043877;28;20503;-73
2022/05/03 01:41:49;;;;;;;18.83;13.07;;;12.00;99.90;;;;;;5037088;28;20534;-73
2022/05/03 01:44:39;;;;;;;18.87;13.10;;;12.00;99.90;;;;;;5045884;28;20986;-73
2022/05/03 01:47:14;;;;;;;18.43;13.97;;;12.00;99.90;;;;;;5053209;28;20867;-73
2022/05/03 01:52:59;;;;;;;16.77;13.13;;;12.00;99.90;;;;;;5027208;28;20980;-73
2022/05/03 01:55:41;;;;;;;19.57;12.30;;;12.00;99.90;;;;;;5042464;28;21022;-73
2022/05/03 01:58:17;;;;;;;17.63;12.87;;;12.00;99.90;;;;;;5038074;28;20458;-73
2022/05/03 02:01:02;;;;;;;16.80;13.57;;;12.00;99.90;;;;;;5032836;28;20923;-73
2022/05/03 02:03:35;;;;;;;21.70;13.07;;;12.00;99.90;;;;;;5032214;28;20441;-73
2022/05/03 02:06:05;;;;;;;21.00;13.50;;;12.00;99.90;;;;;;5032636;28;20445;-73
2022/05/03 02:08:49;;;;;;;19.00;13.53;;;12.00;99.90;;;;;;5034187;28;20880;-73
2022/05/03 02:11:34;;;;;;;18.13;13.20;;;12.00;99.90;;;;;;5045617;28;20539;-73
2022/05/03 02:17:00;;;;;;;25.10;14.67;;;12.00;99.90;;;;;;5033961;28;20444;-73
2022/05/03 02:19:47;;;;;;;20.33;13.30;;;12.00;99.90;;;;;;5032754;28;20476;-73
2022/05/03 02:22:37;;;;;;;18.40;13.40;;;11.90;99.90;;;;;;5032649;28;20614;-73
2022/05/03 02:25:12;;;;;;;16.43;12.60;;;11.90;99.90;;;;;;5017329;28;20860;-73
2022/05/03 02:27:51;;;;;;;17.63;12.57;;;11.90;99.90;;;;;;5036644;28;20460;-73
2022/05/03 02:30:20;;;;;;;24.60;13.33;;;11.90;99.90;;;;;;5032041;28;20461;-73
2022/05/03 02:33:01;;;;;;;16.77;12.93;;;11.90;99.90;;;;;;5042914;28;20488;-73
2022/05/03 02:35:33;;;;;;;15.60;12.90;;;11.90;99.90;;;;;;5035851;28;21167;-73
2022/05/03 02:38:05;;;;;;;18.43;12.10;;;12.00;99.90;;;;;;5043361;28;20459;-73
2022/05/03 02:40:33;;;;;;;18.23;13.70;;;12.00;99.90;;;;;;5037589;28;20513;-73
2022/05/03 02:43:00;;;;;;;17.30;12.60;;;12.00;99.90;;;;;;5035782;28;20440;-72
2022/05/03 02:45:27;;;;;;;21.13;12.40;;;11.90;99.90;;;;;;5051407;28;20897;-73
2022/05/03 02:48:08;;;;;;;14.70;11.83;;;11.90;99.90;;;;;;5048684;28;20881;-73
2022/05/03 02:50:53;;;;;;;16.00;12.77;;;11.90;99.90;;;;;;5048711;28;20480;-73
2022/05/03 02:53:26;;;;;;;16.37;12.40;;;11.90;99.90;;;;;;5025360;28;20530;-73
2022/05/03 02:55:55;;;;;;;17.20;12.67;;;11.90;99.90;;;;;;5051155;28;20878;-73
2022/05/03 02:58:38;;;;;;;19.77;13.10;;;11.90;99.90;;;;;;5040826;28;20480;-73
2022/05/03 03:04:11;;;;;;;17.90;12.87;;;11.90;99.90;;;;;;5030643;28;20520;-73
2022/05/03 03:06:41;;;;;;;19.83;12.33;;;11.80;99.90;;;;;;5035681;28;20449;-73
2022/05/03 03:09:09;;;;;;;16.93;12.27;;;11.80;99.90;;;;;;5036744;28;20521;-73
2022/05/03 03:11:48;;;;;;;16.83;12.93;;;11.80;99.90;;;;;;5044226;28;20825;-73
2022/05/03 03:14:22;;;;;;;15.47;12.70;;;11.80;99.90;;;;;;5030898;28;20530;-73
2022/05/03 03:16:54;;;;;;;15.77;12.27;;;11.80;99.90;;;;;;5048915;28;20454;-73
2022/05/03 03:19:34;;;;;;;16.03;12.70;;;11.80;99.90;;;;;;5051537;28;20464;-73
2022/05/03 03:22:02;;;;;;;17.50;13.30;;;11.80;99.90;;;;;;5012055;28;20462;-73
2022/05/03 03:24:29;;;;;;;16.60;12.33;;;11.80;99.90;;;;;;5013678;28;20447;-73
2022/05/03 03:27:00;;;;;;;17.20;12.17;;;11.80;99.90;;;;;;5038853;28;20453;-73
2022/05/03 03:29:28;;;;;;;21.80;13.17;;;11.70;99.90;;;;;;5031503;28;20449;-73
2022/05/03 03:31:58;;;;;;;15.30;12.80;;;11.80;99.90;;;;;;5031336;28;20477;-72
2022/05/03 03:34:28;;;;;;;16.13;11.63;;;11.70;99.90;;;;;;5038980;28;20488;-73
2022/05/03 03:37:01;;;;;;;18.80;13.83;;;11.70;99.90;;;;;;5031263;28;20929;-73
2022/05/03 03:39:28;;;;;;;19.27;13.77;;;11.70;99.90;;;;;;5037951;28;20452;-73
2022/05/03 03:41:56;;;;;;;24.17;12.23;;;11.70;99.90;;;;;;5039147;28;20873;-73
2022/05/03 03:44:22;;;;;;;15.90;12.30;;;11.70;99.90;;;;;;5030959;28;20449;-72
2022/05/03 03:46:50;;;;;;;21.07;13.17;;;11.80;99.90;;;;;;5031171;28;20465;-72
2022/05/03 03:49:17;;;;;;;17.23;12.93;;;11.70;99.90;;;;;;5036160;28;20898;-73
2022/05/03 03:51:46;;;;;;;18.47;12.90;;;11.70;99.90;;;;;;5031194;28;20516;-72
2022/05/03 03:54:13;;;;;;;20.00;13.30;;;11.70;99.90;;;;;;5035108;28;20888;-72
2022/05/03 03:56:41;;;;;;;21.33;14.03;;;11.70;99.90;;;;;;5032850;28;20454;-72
2022/05/03 03:59:08;;;;;;;21.30;13.00;;;11.70;99.90;;;;;;5049985;28;20510;-72
2022/05/03 04:01:35;;;;;;;18.60;12.67;;;11.70;99.90;;;;;;5050980;28;20476;-72
2022/05/03 04:04:04;;;;;;;23.50;13.90;;;11.70;99.90;;;;;;5045231;28;20442;-72
2022/05/03 04:06:31;;;;;;;19.57;13.47;;;11.70;99.90;;;;;;5050583;28;20537;-72
2022/05/03 04:08:59;;;;;;;18.50;12.33;;;11.70;99.90;;;;;;5036138;28;20453;-72
2022/05/03 04:11:25;;;;;;;21.60;13.27;;;11.70;99.90;;;;;;5030901;28;20485;-72
2022/05/03 04:13:53;;;;;;;19.20;12.50;;;11.70;99.90;;;;;;5048422;28;20480;-73
2022/05/03 04:16:20;;;;;;;22.13;12.73;;;11.60;99.90;;;;;;5050054;28;20468;-73
2022/05/03 04:18:46;;;;;;;18.33;12.73;;;11.60;99.90;;;;;;5050085;28;20456;-72
2022/05/03 04:21:14;;;;;;;14.00;12.50;;;11.60;99.90;;;;;;5050439;28;20511;-73
2022/05/03 04:23:41;;;;;;;19.10;13.07;;;11.60;99.90;;;;;;5032482;28;20536;-73
2022/05/03 04:26:10;;;;;;;18.63;12.23;;;11.60;99.90;;;;;;5034474;28;20942;-73
2022/05/03 04:28:37;;;;;;;18.13;12.93;;;11.60;99.90;;;;;;5041877;28;20491;-73
2022/05/03 04:31:03;;;;;;;16.27;13.20;;;11.60;99.90;;;;;;5054060;28;20501;-72
2022/05/03 04:33:30;;;;;;;21.53;13.33;;;11.60;99.90;;;;;;5050390;28;20271;-73
2022/05/03 04:35:57;;;;;;;14.07;12.20;;;11.60;99.90;;;;;;5052466;28;20948;-72
2022/05/03 04:38:23;;;;;;;17.33;13.47;;;11.60;99.90;;;;;;5054024;28;20456;-72
2022/05/03 04:40:50;;;;;;;16.80;12.60;;;11.70;99.90;;;;;;5053167;28;20562;-72
2022/05/03 04:43:18;;;;;;;21.40;13.80;;;11.70;99.90;;;;;;5051460;28;20509;-72
2022/05/03 04:45:45;;;;;;;18.70;12.27;;;11.70;99.90;;;;;;5053367;28;20522;-72
2022/05/03 04:48:12;;;;;;;16.10;13.83;;;11.70;99.90;;;;;;5054139;28;20452;-72
2022/05/03 04:50:38;;;;;;;15.87;12.27;;;11.70;99.90;;;;;;5048222;28;20472;-72
2022/05/03 04:53:05;;;;;;;24.97;13.43;;;11.70;99.90;;;;;;5033960;28;20547;-72
2022/05/03 04:55:32;;;;;;;15.40;12.50;;;11.70;99.90;;;;;;5033871;28;20457;-72
2022/05/03 04:57:58;;;;;;;15.57;11.80;;;11.70;99.90;;;;;;5033916;28;20484;-72
2022/05/03 05:00:26;;;;;;;19.83;13.20;;;11.70;99.90;;;;;;5033692;28;20527;-72
2022/05/03 05:02:53;;;;;;;16.40;12.73;;;11.80;99.90;;;;;;5044796;28;20840;-72
2022/05/03 05:05:20;;;;;;;21.80;13.43;;;11.70;99.90;;;;;;5033472;28;20507;-72
2022/05/03 05:07:46;;;;;;;20.33;12.70;;;11.80;99.90;;;;;;5034993;28;20460;-72
2022/05/03 05:10:26;;;;;;;16.23;12.10;;;11.80;99.90;;;;;;5039845;28;20476;-72
2022/05/03 05:12:53;;;;;;;15.83;13.00;;;11.90;99.90;;;;;;5052483;28;20826;-72
2022/05/03 05:15:20;;;;;;;18.03;12.90;;;11.90;99.90;;;;;;5052862;28;20448;-73
2022/05/03 05:17:48;;;;;;;17.53;13.50;;;11.90;99.90;;;;;;5042727;28;20481;-72
2022/05/03 05:20:15;;;;;;;16.57;12.93;;;11.90;99.90;;;;;;5033636;28;20477;-73
2022/05/03 05:22:42;;;;;;;19.27;14.47;;;11.90;99.90;;;;;;5042563;28;20856;-73
2022/05/03 05:25:09;;;;;;;17.77;12.83;;;11.90;99.90;;;;;;5029821;28;20868;-72
2022/05/03 05:27:36;;;;;;;17.30;13.00;;;11.90;99.90;;;;;;5033057;28;20805;-72
2022/05/03 05:30:03;;;;;;;21.23;12.43;;;12.00;99.90;;;;;;5033399;28;20515;-72
2022/05/03 05:32:30;;;;;;;16.60;13.00;;;12.00;99.90;;;;;;5038194;28;20499;-72
2022/05/03 05:34:58;;;;;;;18.87;13.40;;;12.00;99.90;;;;;;5051059;28;20487;-74
2022/05/03 05:37:24;;;;;;;14.87;13.07;;;12.00;99.90;;;;;;5051036;28;20474;-72
2022/05/03 05:39:51;;;;;;;22.43;13.70;;;12.00;99.90;;;;;;5032207;28;20961;-72
2022/05/03 05:42:18;;;;;;;18.53;13.57;;;12.10;99.90;;;;;;5033126;28;20534;-72
2022/05/03 05:44:44;;;;;;;20.10;13.60;;;12.10;99.90;;;;;;5032656;28;20450;-73
2022/05/03 05:47:11;;;;;;;20.53;12.63;;;12.10;99.90;;;;;;5033666;28;20526;-73
2022/05/03 05:49:38;;;;;;;18.70;13.37;;;12.20;99.90;;;;;;5032509;28;20968;-72
2022/05/03 05:54:51;;;;;;;16.87;12.73;;;12.30;99.90;;;;;;5031760;28;20589;-72
2022/05/03 05:57:18;;;;;;;18.33;13.70;;;12.30;99.90;;;;;;5033658;28;20511;-71
2022/05/03 05:59:44;;;;;;;19.13;13.70;;;12.30;99.90;;;;;;5032947;28;20449;-74
2022/05/03 06:02:11;;;;;;;15.30;13.10;;;12.40;99.90;;;;;;5033635;28;20937;-74
2022/05/03 06:04:37;;;;;;;14.93;12.67;;;12.40;99.90;;;;;;5032706;28;20471;-74
2022/05/03 06:07:06;;;;;;;16.30;11.83;;;12.50;99.90;;;;;;5033162;28;20515;-74
2022/05/03 06:09:34;;;;;;;15.10;12.27;;;12.50;99.90;;;;;;5032973;28;20522;-74
2022/05/03 06:12:00;;;;;;;15.53;12.67;;;12.60;99.90;;;;;;5033020;28;20914;-74
2022/05/03 06:14:27;;;;;;;15.83;12.47;;;12.70;99.90;;;;;;5032294;28;20546;-74
2022/05/03 06:16:55;;;;;;;17.07;12.80;;;12.60;99.90;;;;;;5033025;28;20503;-74
2022/05/03 06:19:22;;;;;;;16.40;13.67;;;12.70;99.90;;;;;;5032870;28;20453;-74
2022/05/03 06:21:50;;;;;;;15.97;12.33;;;12.80;99.90;;;;;;5032646;28;20993;-74
2022/05/03 06:24:18;;;;;;;17.03;12.67;;;12.90;99.90;;;;;;5032284;28;20507;-74
2022/05/03 06:26:45;;;;;;;20.27;13.30;;;12.90;99.90;;;;;;5033073;28;20449;-74
2022/05/03 06:29:12;;;;;;;15.20;12.87;;;12.90;99.90;;;;;;5032543;28;20468;-74
2022/05/03 06:31:39;;;;;;;17.23;12.97;;;13.00;99.90;;;;;;5032435;28;20465;-74
2022/05/03 06:34:06;;;;;;;14.80;12.30;;;13.00;99.90;;;;;;5031938;28;20486;-74
2022/05/03 06:36:35;;;;;;;18.77;13.00;;;13.00;99.90;;;;;;5032438;28;20499;-74
2022/05/03 06:39:01;;;;;;;16.87;12.83;;;13.10;99.90;;;;;;5032670;28;20457;-74
2022/05/03 06:41:29;;;;;;;19.53;12.20;;;13.00;99.90;;;;;;5032692;28;20465;-74
2022/05/03 06:43:58;;;;;;;19.60;12.67;;;13.00;99.90;;;;;;5032373;28;20449;-74
2022/05/03 06:46:25;;;;;;;19.13;13.00;;;13.10;99.90;;;;;;5031213;28;21058;-74
2022/05/03 06:48:51;;;;;;;20.63;12.97;;;13.10;99.90;;;;;;5031474;28;20472;-74
2022/05/03 06:51:18;;;;;;;21.80;13.30;;;13.20;99.90;;;;;;5031363;28;20504;-74
2022/05/03 06:53:45;;;;;;;15.90;13.03;;;13.30;99.90;;;;;;5030716;28;20489;-74
2022/05/03 06:56:12;;;;;;;19.97;14.50;;;13.30;99.90;;;;;;5032180;28;20810;-74
2022/05/03 06:58:40;;;;;;;23.33;13.60;;;13.40;99.90;;;;;;5032167;28;20450;-74
2022/05/03 07:01:08;;;;;;;18.93;13.03;;;13.30;99.90;;;;;;5031688;28;20477;-74
2022/05/03 07:03:35;;;;;;;24.80;14.17;;;13.40;99.90;;;;;;5031637;28;20445;-74
2022/05/03 07:06:02;;;;;;;18.80;12.60;;;13.40;99.90;;;;;;5032149;28;20507;-74
2022/05/03 07:08:29;;;;;;;17.77;13.40;;;13.50;99.90;;;;;;5032176;28;20461;-74
2022/05/03 07:10:56;;;;;;;19.73;12.57;;;13.50;99.90;;;;;;5031800;28;20480;-74
2022/05/03 07:13:24;;;;;;;19.63;12.87;;;13.50;99.90;;;;;;5031074;28;20500;-74
2022/05/03 07:15:53;;;;;;;24.17;13.40;;;13.50;99.90;;;;;;5031590;28;20997;-74
2022/05/03 07:23:48;;;;;;;17.80;12.73;;;13.80;99.90;;;;;;5031082;28;20795;-74
2022/05/03 07:26:15;;;;;;;20.37;13.47;;;13.90;99.90;;;;;;5031487;28;20704;-74
2022/05/03 07:28:42;;;;;;;26.70;12.70;;;13.90;99.90;;;;;;5031666;28;20502;-74
2022/05/03 07:31:10;;;;;;;18.17;12.63;;;14.00;99.90;;;;;;5031234;28;20889;-74
2022/05/03 07:33:37;;;;;;;18.67;12.60;;;14.10;99.90;;;;;;5030697;28;20449;-74
2022/05/03 07:36:04;;;;;;;18.93;12.77;;;14.10;99.90;;;;;;5031927;28;20453;-74
2022/05/03 07:38:31;;;;;;;16.47;11.90;;;14.10;99.90;;;;;;5031240;28;20454;-74
2022/05/03 07:40:58;;;;;;;18.73;13.23;;;14.00;99.90;;;;;;5031590;28;20531;-74
2022/05/03 07:43:25;;;;;;;20.83;12.50;;;13.90;99.90;;;;;;5030755;28;20949;-74
2022/05/03 07:45:51;;;;;;;16.43;13.57;;;13.90;99.90;;;;;;5031777;28;20457;-75
2022/05/03 07:48:19;;;;;;;19.17;14.00;;;13.90;99.90;;;;;;5030567;28;20503;-74
2022/05/03 07:50:46;;;;;;;19.07;13.30;;;13.80;99.90;;;;;;5010809;28;20532;-74
2022/05/03 07:53:13;;;;;;;22.53;13.73;;;13.80;99.90;;;;;;5009482;28;20473;-74
2022/05/03 07:55:40;;;;;;;16.57;12.80;;;13.70;99.90;;;;;;5011633;28;20497;-74
2022/05/03 07:58:07;;;;;;;16.20;13.27;;;13.70;99.90;;;;;;5011273;28;21005;-74
2022/05/03 08:00:34;;;;;;;21.13;12.97;;;13.70;99.90;;;;;;5011315;28;20481;-74
2022/05/03 08:03:00;;;;;;;22.83;12.97;;;13.70;99.90;;;;;;5010879;28;20508;-74
2022/05/03 08:05:28;;;;;;;23.87;12.70;;;13.70;99.90;;;;;;5011329;28;20529;-74
2022/05/03 08:07:55;;;;;;;22.03;12.80;;;13.80;99.90;;;;;;5011608;28;20520;-74
2022/05/03 08:10:22;;;;;;;16.00;13.00;;;13.80;99.90;;;;;;5011216;28;20982;-74
2022/05/03 08:12:51;;;;;;;17.43;13.13;;;13.90;99.90;;;;;;5011156;28;20465;-74
2022/05/03 08:15:18;;;;;;;15.93;12.70;;;14.10;99.90;;;;;;5010780;28;20493;-74
2022/05/03 08:17:45;;;;;;;15.93;11.87;;;14.20;99.90;;;;;;5010959;28;20459;-74
2022/05/03 08:20:13;;;;;;;16.50;12.07;;;14.20;99.90;;;;;;5011171;28;20974;-74
2022/05/03 08:22:41;;;;;;;19.03;11.80;;;14.30;99.90;;;;;;5011258;28;20569;-74
2022/05/03 08:25:08;;;;;;;18.60;12.80;;;14.30;99.90;;;;;;5010590;28;20875;-74
2022/05/03 08:27:36;;;;;;;17.97;12.83;;;14.50;99.90;;;;;;5026350;28;20473;-74
2022/05/03 08:30:03;;;;;;;17.90;12.33;;;14.50;99.90;;;;;;5030459;28;20850;-74
2022/05/03 08:32:29;;;;;;;18.13;13.50;;;14.60;99.90;;;;;;5030852;28;20441;-73
2022/05/03 08:34:56;;;;;;;18.00;12.27;;;14.70;99.90;;;;;;5030196;28;20572;-74
2022/05/03 08:43:04;;;;;;;23.00;12.60;;;14.90;99.90;;;;;;5030601;28;20563;-74
2022/05/03 08:45:32;;;;;;;19.63;12.80;;;15.10;99.90;;;;;;5030526;28;20456;-74
2022/05/03 08:48:00;;;;;;;16.03;12.77;;;15.30;99.90;;;;;;5030066;28;20451;-74
2022/05/03 08:50:29;;;;;;;20.63;11.53;;;15.30;99.90;;;;;;5030473;28;20461;-74
2022/05/03 08:53:00;;;;;;;14.97;10.97;;;15.40;99.90;;;;;;5028884;28;21129;-74
2022/05/03 08:55:28;;;;;;;13.23;11.70;;;15.50;99.90;;;;;;5030346;28;20489;-74
2022/05/03 08:57:55;;;;;;;15.67;13.10;;;15.50;99.90;;;;;;5030584;28;20424;-74
2022/05/03 09:00:23;;;;;;;18.73;13.13;;;15.60;99.90;;;;;;5030423;28;20452;-74
2022/05/03 09:02:52;;;;;;;13.93;11.80;;;15.60;99.90;;;;;;5030578;28;20456;-74
2022/05/03 09:05:19;;;;;;;22.83;11.80;;;15.80;99.90;;;;;;5029613;28;20811;-74
2022/05/03 09:07:49;;;;;;;13.83;11.27;;;15.90;99.90;;;;;;5030927;28;20498;-74
2022/05/03 09:10:18;;;;;;;16.87;12.20;;;15.90;99.90;;;;;;5031841;28;20498;-74
2022/05/03 09:12:47;;;;;;;19.13;12.60;;;16.10;99.90;;;;;;5033966;28;20470;-74
2022/05/03 09:15:14;;;;;;;22.00;12.73;;;16.30;99.90;;;;;;5033142;28;20485;-74
2022/05/03 09:17:43;;;;;;;21.70;11.97;;;16.50;99.90;;;;;;5033906;28;20445;-74
2022/05/03 09:25:47;;;;;;;15.63;11.90;;;17.20;99.90;;;;;;5033986;28;20450;-74
2022/05/03 09:28:15;;;;;;;19.27;11.20;;;17.40;99.90;;;;;;5034328;28;20864;-74
2022/05/03 09:30:50;;;;;;;12.97;11.60;;;17.50;99.90;;;;;;5033981;28;20498;-74
2022/05/03 09:33:18;;;;;;;16.90;11.80;;;17.60;99.90;;;;;;5033136;28;20525;-74
2022/05/03 09:35:44;;;;;;;18.70;12.00;;;17.70;99.90;;;;;;5033677;28;20488;-74
2022/05/03 09:38:11;;;;;;;14.53;11.40;;;17.80;99.90;;;;;;5033780;28;20424;-74
2022/05/03 09:40:41;;;;;;;14.60;11.13;;;17.90;99.90;;;;;;5033361;28;20502;-74
2022/05/03 09:43:08;;;;;;;15.10;11.70;;;18.00;99.90;;;;;;5033826;28;20679;-74
2022/05/03 09:45:37;;;;;;;16.33;11.90;;;18.10;99.90;;;;;;5033774;28;20899;-74
2022/05/03 09:48:04;;;;;;;18.43;11.60;;;18.20;99.90;;;;;;5033537;28;20426;-74
2022/05/03 09:50:39;;;;;;;15.27;11.93;;;18.30;99.90;;;;;;5033021;28;20447;-74
2022/05/03 09:53:12;;;;;;;21.20;11.87;;;18.30;99.90;;;;;;5031842;28;20459;-74
2022/05/03 09:55:40;;;;;;;14.80;11.67;;;18.30;99.90;;;;;;5033357;28;20497;-74
2022/05/03 09:58:09;;;;;;;15.93;11.80;;;18.30;99.90;;;;;;5033522;28;20837;-73
2022/05/03 10:00:40;;;;;;;17.57;12.40;;;18.30;99.90;;;;;;5033049;28;20440;-74
2022/05/03 10:03:09;;;;;;;14.13;10.77;;;18.40;99.90;;;;;;5032497;28;20487;-74
2022/05/03 10:05:37;;;;;;;16.23;11.90;;;18.50;99.90;;;;;;5032719;28;20424;-74
2022/05/03 10:08:04;;;;;;;20.70;11.60;;;18.60;99.90;;;;;;5032950;28;20457;-74
2022/05/03 10:10:31;;;;;;;16.87;10.90;;;18.80;99.90;;;;;;5032662;28;20798;-74
2022/05/03 10:12:59;;;;;;;25.90;12.23;;;18.90;99.90;;;;;;5032688;28;20432;-74
2022/05/03 10:21:03;;;;;;;14.30;10.13;;;18.40;99.90;;;;;;5032567;28;20561;-74
2022/05/03 10:23:32;;;;;;;12.37;10.63;;;18.50;99.90;;;;;;5032344;28;20877;-74
2022/05/03 10:26:00;;;;;;;20.13;11.40;;;18.70;99.90;;;;;;5032426;28;20428;-74
2022/05/03 10:29:11;;;;;;;14.83;11.40;;;18.70;99.90;;;;;;5032980;28;20427;-74
2022/05/03 10:31:55;;;;;;;16.53;10.53;;;18.80;99.90;;;;;;5022064;28;20455;-74
2022/05/03 10:34:45;;;;;;;17.57;10.73;;;19.00;99.90;;;;;;5031703;28;20443;-74
2022/05/03 10:37:13;;;;;;;13.80;9.93;;;19.00;99.90;;;;;;5032333;28;20450;-74
2022/05/03 10:39:54;;;;;;;26.93;11.17;;;19.10;99.90;;;;;;5032257;28;20503;-74
2022/05/03 10:42:26;;;;;;;14.23;9.47;;;19.20;99.90;;;;;;5032168;28;20449;-74
2022/05/03 10:45:01;;;;;;;15.03;9.10;;;19.40;99.90;;;;;;5031266;28;20427;-74
2022/05/03 10:47:44;;;;;;;13.23;9.20;;;19.80;99.90;;;;;;5032040;28;20460;-74
2022/05/03 10:50:38;;;;;;;14.30;10.63;;;20.30;99.90;;;;;;5031395;28;20472;-74
2022/05/03 10:53:28;;;;;;;12.57;9.67;;;20.70;99.90;;;;;;5011342;28;20500;-74
2022/05/03 10:56:16;;;;;;;14.13;9.53;;;20.90;99.90;;;;;;5032363;28;20514;-74
2022/05/03 10:58:44;;;;;;;17.47;9.53;;;21.00;99.90;;;;;;5031875;28;20453;-74
2022/05/03 11:01:14;;;;;;;11.37;9.60;;;21.30;99.90;;;;;;5031687;28;20485;-74
2022/05/03 11:04:02;;;;;;;14.97;9.50;;;21.30;99.90;;;;;;5031437;28;20461;-74
2022/05/03 11:06:42;;;;;;;13.33;10.07;;;20.80;99.90;;;;;;5031098;28;20453;-74
2022/05/03 11:09:09;;;;;;;12.77;9.40;;;20.80;99.90;;;;;;5031524;28;20449;-74
2022/05/03 11:12:04;;;;;;;14.63;8.60;;;21.00;99.90;;;;;;5031327;28;20496;-74
2022/05/03 11:14:54;;;;;;;14.83;10.13;;;21.00;99.90;;;;;;4973857;28;20461;-74
2022/05/03 11:17:21;;;;;;;14.73;10.30;;;20.90;99.90;;;;;;5031348;28;20977;-74
2022/05/03 11:19:54;;;;;;;12.73;9.77;;;21.10;99.90;;;;;;5031210;28;20461;-74
2022/05/03 11:22:25;;;;;;;11.57;8.70;;;21.10;99.90;;;;;;5031266;28;20444;-74
2022/05/03 11:24:54;;;;;;;13.40;9.63;;;20.80;99.90;;;;;;5031125;28;20445;-74
2022/05/03 11:27:21;;;;;;;15.50;10.47;;;20.60;99.90;;;;;;5031475;28;20457;-74
2022/05/03 11:29:49;;;;;;;18.37;10.10;;;20.50;99.90;;;;;;5031466;28;20547;-74
2022/05/03 11:32:17;;;;;;;12.57;9.70;;;20.20;99.90;;;;;;5030425;28;20507;-74
2022/05/03 11:34:44;;;;;;;13.93;10.17;;;20.30;99.90;;;;;;5030773;28;20445;-74
2022/05/03 11:37:11;;;;;;;15.90;9.60;;;20.10;99.90;;;;;;5031093;28;20453;-74
2022/05/03 11:39:40;;;;;;;14.33;9.60;;;20.10;99.90;;;;;;5031224;28;20449;-74
2022/05/03 11:42:10;;;;;;;13.13;10.63;;;20.20;99.90;;;;;;5031061;28;20516;-74
2022/05/03 11:44:42;;;;;;;10.07;9.07;;;20.30;99.90;;;;;;5030211;28;20482;-74
2022/05/03 11:47:10;;;;;;;11.27;9.17;;;20.40;99.90;;;;;;5031241;28;20496;-74
2022/05/03 11:49:37;;;;;;;14.67;9.20;;;20.30;99.90;;;;;;5027468;28;20449;-74
2022/05/03 11:57:36;;;;;;;15.47;9.53;;;20.60;99.90;;;;;;5030722;28;20432;-74
2022/05/03 12:00:06;;;;;;;16.60;10.20;;;20.70;99.90;;;;;;5030975;28;20543;-74
2022/05/03 12:02:34;;;;;;;14.00;9.93;;;20.70;99.90;;;;;;5030566;28;20788;-74
2022/05/03 12:05:11;;;;;;;14.43;10.17;;;21.00;99.90;;;;;;5029887;28;20458;-74
2022/05/03 12:07:39;;;;;;;19.97;10.47;;;21.20;99.90;;;;;;5031036;28;20464;-74
2022/05/03 12:10:20;;;;;;;13.60;10.30;;;21.30;99.90;;;;;;5030834;28;20977;-74
2022/05/03 12:12:48;;;;;;;13.30;9.80;;;21.20;99.90;;;;;;5030877;28;20457;-74
2022/05/03 12:15:19;;;;;;;14.57;10.90;;;20.90;99.90;;;;;;5030393;28;20904;-74
2022/05/03 12:17:53;;;;;;;13.13;8.90;;;20.70;99.90;;;;;;5030428;28;20544;-74
2022/05/03 12:20:21;;;;;;;14.17;8.60;;;20.50;99.90;;;;;;5030491;28;20501;-74
2022/05/03 12:23:19;;;;;;;14.33;10.40;;;20.50;99.90;;;;;;5030278;28;20449;-74
2022/05/03 12:25:49;;;;;;;12.30;9.37;;;20.50;99.90;;;;;;5030503;28;20448;-74
2022/05/03 12:28:16;;;;;;;11.77;9.93;;;20.50;99.90;;;;;;5030299;28;20503;-74
2022/05/03 12:30:44;;;;;;;12.93;9.00;;;20.50;99.90;;;;;;5030374;28;20531;-74
2022/05/03 12:33:15;;;;;;;17.30;9.33;;;20.40;99.90;;;;;;5029788;28;20449;-75
2022/05/03 12:35:43;;;;;;;11.80;9.77;;;20.30;99.90;;;;;;5030229;28;20564;-74
2022/05/03 12:38:13;;;;;;;15.33;10.27;;;20.30;99.90;;;;;;5030112;28;20812;-74
2022/05/03 12:40:44;;;;;;;18.60;11.87;;;20.20;99.90;;;;;;5029845;28;20473;-74
2022/05/03 12:43:15;;;;;;;17.30;10.43;;;20.20;99.90;;;;;;5029763;28;20512;-74
2022/05/03 12:45:42;;;;;;;15.40;10.43;;;20.20;99.90;;;;;;5032503;28;20934;-74
2022/05/03 12:48:10;;;;;;;12.50;9.93;;;20.20;99.90;;;;;;5032128;28;20469;-74
2022/05/03 12:50:37;;;;;;;13.83;9.70;;;20.30;99.90;;;;;;5033464;28;20471;-74
2022/05/03 12:53:04;;;;;;;11.43;9.30;;;20.60;99.90;;;;;;5032666;28;20431;-74
2022/05/03 12:55:30;;;;;;;12.13;9.40;;;20.70;99.90;;;;;;5033644;28;20487;-74
2022/05/03 13:00:43;;;;;;;13.30;9.30;;;21.30;99.90;;;;;;5033915;28;20464;-74
2022/05/03 13:03:10;;;;;;;14.63;8.33;;;21.70;99.90;;;;;;5033403;28;20522;-74
2022/05/03 13:05:41;;;;;;;10.53;8.20;;;22.10;99.90;;;;;;5033837;28;20445;-74
2022/05/03 13:08:08;;;;;;;15.00;9.13;;;22.30;99.90;;;;;;5034338;28;20862;-74
2022/05/03 13:10:34;;;;;;;13.60;8.70;;;22.70;99.90;;;;;;5033445;28;20476;-74
2022/05/03 13:13:03;;;;;;;15.80;8.73;;;22.70;99.90;;;;;;5033445;28;20457;-74
2022/05/03 13:15:30;;;;;;;11.70;8.87;;;22.70;99.90;;;;;;5033084;28;20485;-74
2022/05/03 13:17:58;;;;;;;10.53;8.40;;;23.10;99.90;;;;;;5033661;28;20453;-74
2022/05/03 13:20:26;;;;;;;14.43;8.67;;;23.40;99.90;;;;;;5033330;28;21005;-74
2022/05/03 13:22:53;;;;;;;13.57;8.30;;;23.90;99.90;;;;;;5033644;28;20453;-74
2022/05/03 13:25:20;;;;;;;17.37;8.17;;;23.90;99.90;;;;;;5032754;28;20453;-74
2022/05/03 13:27:46;;;;;;;8.93;8.00;;;23.70;99.90;;;;;;5033369;28;20701;-74